Pont Aven — FNPN — position and weather

sailwx.info

Track history (hours):
 
Tides and Currents Weather Stations Pressure Air Temp Water Temp Dewpoint Dewpoint Depression Visibility Wind Speed Wind Dir Waves Ship Positions

Pont Aven

Last reported at 2019-Oct-18 04:16 UTC. Time now 2019-Oct-18 23:57 UTC.
Position N 48°55' W 004°02'.

Length 185 m; beam 31 m.

Type: Passenger vessel. MMSI: 228183600.

Date/timePositionNaut miles runAvg speedWind from/ knotsBaromVisibWave heightAir tempDewpointWater temp
2019-Oct-18 04:16N 48°55' W 004°02'516.3
2019-Oct-18 03:57N 48°56' W 004°10'4710.9
2019-Oct-17 23:40N 49°42' W 003°60'211.2
2019-Oct-17 23:30N 49°43' W 004°01'510.9
2019-Oct-17 23:01N 49°48' W 004°04'611.2
2019-Oct-17 22:30N 49°54' W 004°04'510.9
2019-Oct-17 22:00N 49°59' W 004°08'510.6
2019-Oct-17 21:31N 50°04' W 004°08'510.6
2019-Oct-17 21:01N 50°10' W 004°09'510.8
2019-Oct-17 20:31N 50°15' W 004°10'510.4
2019-Oct-17 20:00N 50°20' W 004°10'2 3.3
2019-Oct-17 19:30N 50°22' W 004°09'0 0.0
2019-Oct-17 19:01N 50°22' W 004°09'0 0.0
2019-Oct-17 18:31N 50°22' W 004°09'0 0.0
2019-Oct-17 18:01N 50°22' W 004°09'0 0.0
2019-Oct-17 17:31N 50°22' W 004°09'0 0.5
2019-Oct-17 17:01N 50°22' W 004°09'612.8
2019-Oct-17 16:31N 50°16' W 004°12'1121.5
2019-Oct-17 16:01N 50°05' W 004°17'1121.5
2019-Oct-17 15:31N 49°55' W 004°21'6520.7
2019-Oct-17 12:21N 48°52' W 004°49'719.9
2019-Oct-17 12:00N 48°45' W 004°52'1019.6
2019-Oct-17 11:31N 48°36' W 004°56'918.8
2019-Oct-17 11:01N 48°27' W 005°01'816.8
2019-Oct-17 10:31N 48°20' W 005°07'1019.7
2019-Oct-17 10:01N 48°10' W 005°09'918.9
2019-Oct-17 09:31N 48°00' W 005°09'918.7
2019-Oct-17 09:01N 47°51' W 005°06'1019.5
2019-Oct-17 08:30N 47°42' W 005°03'1019.8
2019-Oct-17 08:00N 47°32' W 004°60'1819.9
2019-Oct-17 07:05N 47°14' W 004°54'21320.4
2019-Oct-16 20:37N 43°46' W 003°49'220.9
2019-Oct-16 20:31N 43°44' W 003°49'1020.9
2019-Oct-16 20:01N 43°34' W 003°46'6 3.7
2019-Oct-16 18:20N 43°28' W 003°48'0 0.0
2019-Oct-16 17:29N 43°28' W 003°48'0 0.0
2019-Oct-16 17:00N 43°28' W 003°48'4 4.4
2019-Oct-16 16:04N 43°31' W 003°45'120.0
2019-Oct-16 16:00N 43°32' W 003°45'1020.1
2019-Oct-16 15:30N 43°42' W 003°47'1119.9
2019-Oct-16 14:57N 43°53' W 003°51'23718.5
2019-Oct-16 02:09N 47°44' W 005°04'317.8
2019-Oct-16 02:00N 47°47' W 005°05'917.8
2019-Oct-16 01:30N 47°56' W 005°07'917.5
2019-Oct-16 01:00N 48°04' W 005°10'918.2
2019-Oct-16 00:30N 48°13' W 005°08'918.6
2019-Oct-16 00:01N 48°22' W 005°06'815.5
2019-Oct-15 23:31N 48°29' W 004°59'1121.1
2019-Oct-15 23:01N 48°39' W 004°55'1121.7
2019-Oct-15 22:31N 48°49' W 004°50'9420.4
2019-Oct-15 17:55N 50°19' W 004°10'3 6.4
2019-Oct-15 17:31N 50°22' W 004°09'0 0.0
2019-Oct-15 17:01N 50°22' W 004°09'0 0.0
2019-Oct-15 16:31N 50°22' W 004°09'0 0.0
2019-Oct-15 16:01N 50°22' W 004°09'0 0.0
2019-Oct-15 15:31N 50°22' W 004°09'0 0.0
2019-Oct-15 15:00N 50°22' W 004°09'1 2.0
2019-Oct-15 14:31N 50°21' W 004°08'1015.1
2019-Oct-15 13:50N 50°11' W 004°14'820.9
2019-Oct-15 13:26N 50°04' W 004°18'7420.0
2019-Oct-15 09:43N 48°52' W 004°48'419.5
2019-Oct-15 09:30N 48°48' W 004°49'1019.4
2019-Oct-15 09:01N 48°38' W 004°53'918.9
2019-Oct-15 08:31N 48°29' W 004°58'816.0
2019-Oct-15 08:01N 48°23' W 005°05'918.2
2019-Oct-15 07:31N 48°14' W 005°08'918.6
2019-Oct-15 07:01N 48°05' W 005°10'816.6
2019-Oct-15 06:30N 47°57' W 005°08'816.5
2019-Oct-15 06:01N 47°49' W 005°05'917.6
2019-Oct-15 05:30N 47°40' W 005°02'918.2
2019-Oct-15 05:00N 47°31' W 004°58'23419.8
2019-Oct-14 17:12N 43°42' W 003°48'420.6
2019-Oct-14 17:00N 43°38' W 003°47'1019.5
2019-Oct-14 16:28N 43°28' W 003°45'2 4.7
2019-Oct-14 15:59N 43°28' W 003°48'0 0.0
2019-Oct-14 15:30N 43°28' W 003°48'0 0.0
2019-Oct-14 15:00N 43°28' W 003°48'0 0.0
2019-Oct-14 14:30N 43°28' W 003°48'0 0.0
2019-Oct-14 14:00N 43°28' W 003°48'0 0.0
2019-Oct-14 13:30N 43°28' W 003°48'0 0.0
2019-Oct-14 13:00N 43°28' W 003°48'4 6.6
2019-Oct-14 12:21N 43°31' W 003°45'617.0
2019-Oct-14 12:00N 43°37' W 003°47'917.9
2019-Oct-14 11:30N 43°45' W 003°50'24620.7
2019-Oct-13 23:35N 47°46' W 005°05'219.8
2019-Oct-13 23:30N 47°48' W 005°06'1019.8
2019-Oct-13 23:00N 47°57' W 005°09'1020.2
2019-Oct-13 22:30N 48°08' W 005°10'1121.0
2019-Oct-13 22:00N 48°18' W 005°07'918.7
2019-Oct-13 21:31N 48°27' W 005°02'918.7
2019-Oct-13 21:01N 48°35' W 004°57'1121.8
2019-Oct-13 20:30N 48°46' W 004°56'1121.5
2019-Oct-13 20:00N 48°57' W 004°54'8720.1
2019-Oct-13 15:41N 50°19' W 004°10'211.4
2019-Oct-13 15:30N 50°21' W 004°09'1 2.0
2019-Oct-13 15:01N 50°22' W 004°09'0 0.0
2019-Oct-13 14:30N 50°22' W 004°09'0 0.0
2019-Oct-13 14:01N 50°22' W 004°09'0 0.0
2019-Oct-13 13:30N 50°22' W 004°09'0 0.0
2019-Oct-13 13:00N 50°22' W 004°09'2 3.5
2019-Oct-13 12:26N 50°20' W 004°10'918.8
2019-Oct-13 11:56N 50°11' W 004°09'8611.4
2019-Oct-13 04:26N 48°45' W 003°57'1320.3
2019-Oct-13 03:46N 48°55' W 004°11'21219.5
2019-Oct-12 16:53N 51°31' W 007°55'717.3
2019-Oct-12 16:30N 51°36' W 008°02'917.1
2019-Oct-12 16:01N 51°42' W 008°11'713.4
2019-Oct-12 15:31N 51°49' W 008°16'3 5.6
2019-Oct-12 15:01N 51°50' W 008°19'0 0.7
2019-Oct-12 14:30N 51°50' W 008°19'0 0.0
2019-Oct-12 14:00N 51°50' W 008°19'0 0.0
2019-Oct-12 13:30N 51°50' W 008°19'0 0.0
2019-Oct-12 13:00N 51°50' W 008°19'0 0.0
2019-Oct-12 12:30N 51°50' W 008°19'0 0.0
2019-Oct-12 12:00N 51°50' W 008°19'0 0.0
2019-Oct-12 11:30N 51°50' W 008°19'0 0.0
2019-Oct-12 11:00N 51°50' W 008°19'0 0.0
2019-Oct-12 10:30N 51°50' W 008°19'0 0.0
2019-Oct-12 10:00N 51°50' W 008°19'0 0.0
2019-Oct-12 09:31N 51°50' W 008°19'0 0.0
2019-Oct-12 09:01N 51°50' W 008°19'0 0.0
2019-Oct-12 08:30N 51°50' W 008°19'1 1.5
2019-Oct-12 08:01N 51°51' W 008°19'4 7.3
2019-Oct-12 07:31N 51°47' W 008°16'917.4
2019-Oct-12 07:01N 51°39' W 008°10'1019.9
2019-Oct-12 06:31N 51°32' W 007°59'1019.9
2019-Oct-12 06:01N 51°27' W 007°46'218 8.8
2019-Oct-11 05:25N 48°46' W 003°57'715.6
2019-Oct-11 04:57N 48°52' W 004°02'2015.3
2019-Oct-11 03:39N 49°10' W 004°18'6413.4
2019-Oct-10 22:54N 50°12' W 004°37'815.9
2019-Oct-10 22:22N 50°15' W 004°25'716.2
2019-Oct-10 21:55N 50°17' W 004°14'511.6
2019-Oct-10 21:30N 50°21' W 004°09'1 2.4
2019-Oct-10 21:00N 50°22' W 004°09'0 0.0
2019-Oct-10 20:30N 50°22' W 004°09'0 0.0
2019-Oct-10 20:00N 50°22' W 004°09'0 0.0
2019-Oct-10 19:30N 50°22' W 004°09'0 0.0
2019-Oct-10 19:00N 50°22' W 004°09'2 4.1
2019-Oct-10 18:31N 50°20' W 004°10'919.0
2019-Oct-10 18:00N 50°11' W 004°13'1121.1
2019-Oct-10 17:29N 49°60' W 004°16'6821.3
2019-Oct-10 14:17N 48°54' W 004°43'621.6
2019-Oct-10 14:00N 48°48' W 004°45'1121.9
2019-Oct-10 13:31N 48°37' W 004°49'918.4
2019-Oct-10 13:01N 48°28' W 004°51'715.0
2019-Oct-10 12:31N 48°21' W 004°49'917.8
2019-Oct-10 12:01N 48°12' W 004°46'1019.2
2019-Oct-10 11:31N 48°03' W 004°46'917.8
2019-Oct-10 11:01N 47°54' W 004°43'1020.7
2019-Oct-10 10:30N 47°44' W 004°40'1020.3
2019-Oct-10 10:01N 47°34' W 004°36'1019.8
2019-Oct-10 09:29N 47°24' W 004°32'2620.0
2019-Oct-10 08:12N 46°59' W 004°24'419.7
2019-Oct-10 07:59N 46°55' W 004°22'1419.4
2019-Oct-10 07:16N 46°42' W 004°17'17219.2
2019-Oct-09 22:19N 43°51' W 003°47'619.2
2019-Oct-09 22:01N 43°45' W 003°46'1019.3
2019-Oct-09 21:31N 43°36' W 003°45'812.9
2019-Oct-09 20:51N 43°27' W 003°48'0 0.2
2019-Oct-09 20:20N 43°28' W 003°48'0 0.0
2019-Oct-09 20:00N 43°28' W 003°48'0 0.0
2019-Oct-09 19:19N 43°28' W 003°48'0 0.0
2019-Oct-09 18:59N 43°28' W 003°48'0 0.0
2019-Oct-09 18:30N 43°28' W 003°48'0 0.0
2019-Oct-09 18:01N 43°28' W 003°48'4 4.6
2019-Oct-09 17:04N 43°31' W 003°45'120.6
2019-Oct-09 17:00N 43°32' W 003°45'1020.6
2019-Oct-09 16:30N 43°42' W 003°49'1120.3
2019-Oct-09 15:57N 43°53' W 003°52'23620.4
2019-Oct-09 04:21N 47°44' W 005°04'721.0
2019-Oct-09 04:00N 47°51' W 005°06'1121.2
2019-Oct-09 03:30N 48°01' W 005°10'1020.4
2019-Oct-09 03:01N 48°11' W 005°08'1020.2
2019-Oct-09 02:31N 48°21' W 005°07'816.0
2019-Oct-09 02:01N 48°28' W 004°60'1019.2
2019-Oct-09 01:30N 48°37' W 004°54'919.0
2019-Oct-09 01:01N 48°46' W 004°50'1019.0
2019-Oct-09 00:31N 48°55' W 004°46'7920.1
2019-Oct-08 20:34N 50°11' W 004°14'620.5
2019-Oct-08 20:18N 50°16' W 004°11'515.6
2019-Oct-08 20:00N 50°21' W 004°09'1 2.3
2019-Oct-08 19:30N 50°22' W 004°09'0 0.0
2019-Oct-08 19:00N 50°22' W 004°09'0 0.0
2019-Oct-08 18:30N 50°22' W 004°09'0 0.0
2019-Oct-08 18:00N 50°22' W 004°09'0 0.0
2019-Oct-08 17:30N 50°22' W 004°09'0 0.0
2019-Oct-08 17:00N 50°22' W 004°09'0 0.9
2019-Oct-08 16:30N 50°21' W 004°09'713.6
2019-Oct-08 16:00N 50°15' W 004°11'1121.0
2019-Oct-08 15:30N 50°04' W 004°15'7221.2
2019-Oct-08 12:05N 48°54' W 004°43'221.3
2019-Oct-08 12:00N 48°53' W 004°44'1121.2
2019-Oct-08 11:30N 48°42' W 004°47'1121.5
2019-Oct-08 11:00N 48°32' W 004°51'816.2
2019-Oct-08 10:31N 48°24' W 004°49'713.6
2019-Oct-08 10:00N 48°17' W 004°46'1020.7
2019-Oct-08 09:31N 48°07' W 004°46'815.5
2019-Oct-08 09:01N 47°59' W 004°43'1020.3
2019-Oct-08 08:30N 47°49' W 004°41'1020.4
2019-Oct-08 08:00N 47°39' W 004°40'1020.4
2019-Oct-08 07:30N 47°29' W 004°38'1020.2
2019-Oct-08 07:00N 47°19' W 004°36'  
Track history (hours):
 
Tides and Currents Weather Stations Pressure Air Temp Water Temp Dewpoint Dewpoint Depression Visibility Wind Speed Wind Dir Waves Ship Positions

Pont Aven

Last reported at 2019-Oct-18 04:16 UTC. Time now 2019-Oct-18 23:57 UTC.
Position N 48°55' W 004°02'.

Length 185 m; beam 31 m.

Type: Passenger vessel. MMSI: 228183600.

Date/timePositionNaut miles runAvg speedWind from/ knotsBaromVisibWave heightAir tempDewpointWater temp
2019-Oct-18 04:16N 48°55' W 004°02'516.3
2019-Oct-18 03:57N 48°56' W 004°10'4710.9
2019-Oct-17 23:40N 49°42' W 003°60'211.2
2019-Oct-17 23:30N 49°43' W 004°01'510.9
2019-Oct-17 23:01N 49°48' W 004°04'611.2
2019-Oct-17 22:30N 49°54' W 004°04'510.9
2019-Oct-17 22:00N 49°59' W 004°08'510.6
2019-Oct-17 21:31N 50°04' W 004°08'510.6
2019-Oct-17 21:01N 50°10' W 004°09'510.8
2019-Oct-17 20:31N 50°15' W 004°10'510.4
2019-Oct-17 20:00N 50°20' W 004°10'2 3.3
2019-Oct-17 19:30N 50°22' W 004°09'0 0.0
2019-Oct-17 19:01N 50°22' W 004°09'0 0.0
2019-Oct-17 18:31N 50°22' W 004°09'0 0.0
2019-Oct-17 18:01N 50°22' W 004°09'0 0.0
2019-Oct-17 17:31N 50°22' W 004°09'0 0.5
2019-Oct-17 17:01N 50°22' W 004°09'612.8
2019-Oct-17 16:31N 50°16' W 004°12'1121.5
2019-Oct-17 16:01N 50°05' W 004°17'1121.5
2019-Oct-17 15:31N 49°55' W 004°21'6520.7
2019-Oct-17 12:21N 48°52' W 004°49'719.9
2019-Oct-17 12:00N 48°45' W 004°52'1019.6
2019-Oct-17 11:31N 48°36' W 004°56'918.8
2019-Oct-17 11:01N 48°27' W 005°01'816.8
2019-Oct-17 10:31N 48°20' W 005°07'1019.7
2019-Oct-17 10:01N 48°10' W 005°09'918.9
2019-Oct-17 09:31N 48°00' W 005°09'918.7
2019-Oct-17 09:01N 47°51' W 005°06'1019.5
2019-Oct-17 08:30N 47°42' W 005°03'1019.8
2019-Oct-17 08:00N 47°32' W 004°60'1819.9
2019-Oct-17 07:05N 47°14' W 004°54'21320.4
2019-Oct-16 20:37N 43°46' W 003°49'220.9
2019-Oct-16 20:31N 43°44' W 003°49'1020.9
2019-Oct-16 20:01N 43°34' W 003°46'6 3.7
2019-Oct-16 18:20N 43°28' W 003°48'0 0.0
2019-Oct-16 17:29N 43°28' W 003°48'0 0.0
2019-Oct-16 17:00N 43°28' W 003°48'4 4.4
2019-Oct-16 16:04N 43°31' W 003°45'120.0
2019-Oct-16 16:00N 43°32' W 003°45'1020.1
2019-Oct-16 15:30N 43°42' W 003°47'1119.9
2019-Oct-16 14:57N 43°53' W 003°51'23718.5
2019-Oct-16 02:09N 47°44' W 005°04'317.8
2019-Oct-16 02:00N 47°47' W 005°05'917.8
2019-Oct-16 01:30N 47°56' W 005°07'917.5
2019-Oct-16 01:00N 48°04' W 005°10'918.2
2019-Oct-16 00:30N 48°13' W 005°08'918.6
2019-Oct-16 00:01N 48°22' W 005°06'815.5
2019-Oct-15 23:31N 48°29' W 004°59'1121.1
2019-Oct-15 23:01N 48°39' W 004°55'1121.7
2019-Oct-15 22:31N 48°49' W 004°50'9420.4
2019-Oct-15 17:55N 50°19' W 004°10'3 6.4
2019-Oct-15 17:31N 50°22' W 004°09'0 0.0
2019-Oct-15 17:01N 50°22' W 004°09'0 0.0
2019-Oct-15 16:31N 50°22' W 004°09'0 0.0
2019-Oct-15 16:01N 50°22' W 004°09'0 0.0
2019-Oct-15 15:31N 50°22' W 004°09'0 0.0
2019-Oct-15 15:00N 50°22' W 004°09'1 2.0
2019-Oct-15 14:31N 50°21' W 004°08'1015.1
2019-Oct-15 13:50N 50°11' W 004°14'820.9
2019-Oct-15 13:26N 50°04' W 004°18'7420.0
2019-Oct-15 09:43N 48°52' W 004°48'419.5
2019-Oct-15 09:30N 48°48' W 004°49'1019.4
2019-Oct-15 09:01N 48°38' W 004°53'918.9
2019-Oct-15 08:31N 48°29' W 004°58'816.0
2019-Oct-15 08:01N 48°23' W 005°05'918.2
2019-Oct-15 07:31N 48°14' W 005°08'918.6
2019-Oct-15 07:01N 48°05' W 005°10'816.6
2019-Oct-15 06:30N 47°57' W 005°08'816.5
2019-Oct-15 06:01N 47°49' W 005°05'917.6
2019-Oct-15 05:30N 47°40' W 005°02'918.2
2019-Oct-15 05:00N 47°31' W 004°58'23419.8
2019-Oct-14 17:12N 43°42' W 003°48'420.6
2019-Oct-14 17:00N 43°38' W 003°47'1019.5
2019-Oct-14 16:28N 43°28' W 003°45'2 4.7
2019-Oct-14 15:59N 43°28' W 003°48'0 0.0
2019-Oct-14 15:30N 43°28' W 003°48'0 0.0
2019-Oct-14 15:00N 43°28' W 003°48'0 0.0
2019-Oct-14 14:30N 43°28' W 003°48'0 0.0
2019-Oct-14 14:00N 43°28' W 003°48'0 0.0
2019-Oct-14 13:30N 43°28' W 003°48'0 0.0
2019-Oct-14 13:00N 43°28' W 003°48'4 6.6
2019-Oct-14 12:21N 43°31' W 003°45'617.0
2019-Oct-14 12:00N 43°37' W 003°47'917.9
2019-Oct-14 11:30N 43°45' W 003°50'24620.7
2019-Oct-13 23:35N 47°46' W 005°05'219.8
2019-Oct-13 23:30N 47°48' W 005°06'1019.8
2019-Oct-13 23:00N 47°57' W 005°09'1020.2
2019-Oct-13 22:30N 48°08' W 005°10'1121.0
2019-Oct-13 22:00N 48°18' W 005°07'918.7
2019-Oct-13 21:31N 48°27' W 005°02'918.7
2019-Oct-13 21:01N 48°35' W 004°57'1121.8
2019-Oct-13 20:30N 48°46' W 004°56'1121.5
2019-Oct-13 20:00N 48°57' W 004°54'8720.1
2019-Oct-13 15:41N 50°19' W 004°10'211.4
2019-Oct-13 15:30N 50°21' W 004°09'1 2.0
2019-Oct-13 15:01N 50°22' W 004°09'0 0.0
2019-Oct-13 14:30N 50°22' W 004°09'0 0.0
2019-Oct-13 14:01N 50°22' W 004°09'0 0.0
2019-Oct-13 13:30N 50°22' W 004°09'0 0.0
2019-Oct-13 13:00N 50°22' W 004°09'2 3.5
2019-Oct-13 12:26N 50°20' W 004°10'918.8
2019-Oct-13 11:56N 50°11' W 004°09'8611.4
2019-Oct-13 04:26N 48°45' W 003°57'1320.3
2019-Oct-13 03:46N 48°55' W 004°11'21219.5
2019-Oct-12 16:53N 51°31' W 007°55'717.3
2019-Oct-12 16:30N 51°36' W 008°02'917.1
2019-Oct-12 16:01N 51°42' W 008°11'713.4
2019-Oct-12 15:31N 51°49' W 008°16'3 5.6
2019-Oct-12 15:01N 51°50' W 008°19'0 0.7
2019-Oct-12 14:30N 51°50' W 008°19'0 0.0
2019-Oct-12 14:00N 51°50' W 008°19'0 0.0
2019-Oct-12 13:30N 51°50' W 008°19'0 0.0
2019-Oct-12 13:00N 51°50' W 008°19'0 0.0
2019-Oct-12 12:30N 51°50' W 008°19'0 0.0
2019-Oct-12 12:00N 51°50' W 008°19'0 0.0
2019-Oct-12 11:30N 51°50' W 008°19'0 0.0
2019-Oct-12 11:00N 51°50' W 008°19'0 0.0
2019-Oct-12 10:30N 51°50' W 008°19'0 0.0
2019-Oct-12 10:00N 51°50' W 008°19'0 0.0
2019-Oct-12 09:31N 51°50' W 008°19'0 0.0
2019-Oct-12 09:01N 51°50' W 008°19'0 0.0
2019-Oct-12 08:30N 51°50' W 008°19'1 1.5
2019-Oct-12 08:01N 51°51' W 008°19'4 7.3
2019-Oct-12 07:31N 51°47' W 008°16'917.4
2019-Oct-12 07:01N 51°39' W 008°10'1019.9
2019-Oct-12 06:31N 51°32' W 007°59'1019.9
2019-Oct-12 06:01N 51°27' W 007°46'218 8.8
2019-Oct-11 05:25N 48°46' W 003°57'715.6
2019-Oct-11 04:57N 48°52' W 004°02'2015.3
2019-Oct-11 03:39N 49°10' W 004°18'6413.4
2019-Oct-10 22:54N 50°12' W 004°37'815.9
2019-Oct-10 22:22N 50°15' W 004°25'716.2
2019-Oct-10 21:55N 50°17' W 004°14'511.6
2019-Oct-10 21:30N 50°21' W 004°09'1 2.4
2019-Oct-10 21:00N 50°22' W 004°09'0 0.0
2019-Oct-10 20:30N 50°22' W 004°09'0 0.0
2019-Oct-10 20:00N 50°22' W 004°09'0 0.0
2019-Oct-10 19:30N 50°22' W 004°09'0 0.0
2019-Oct-10 19:00N 50°22' W 004°09'2 4.1
2019-Oct-10 18:31N 50°20' W 004°10'919.0
2019-Oct-10 18:00N 50°11' W 004°13'1121.1
2019-Oct-10 17:29N 49°60' W 004°16'6821.3
2019-Oct-10 14:17N 48°54' W 004°43'621.6
2019-Oct-10 14:00N 48°48' W 004°45'1121.9
2019-Oct-10 13:31N 48°37' W 004°49'918.4
2019-Oct-10 13:01N 48°28' W 004°51'715.0
2019-Oct-10 12:31N 48°21' W 004°49'917.8
2019-Oct-10 12:01N 48°12' W 004°46'1019.2
2019-Oct-10 11:31N 48°03' W 004°46'917.8
2019-Oct-10 11:01N 47°54' W 004°43'1020.7
2019-Oct-10 10:30N 47°44' W 004°40'1020.3
2019-Oct-10 10:01N 47°34' W 004°36'1019.8
2019-Oct-10 09:29N 47°24' W 004°32'2620.0
2019-Oct-10 08:12N 46°59' W 004°24'419.7
2019-Oct-10 07:59N 46°55' W 004°22'1419.4
2019-Oct-10 07:16N 46°42' W 004°17'17219.2
2019-Oct-09 22:19N 43°51' W 003°47'619.2
2019-Oct-09 22:01N 43°45' W 003°46'1019.3
2019-Oct-09 21:31N 43°36' W 003°45'812.9
2019-Oct-09 20:51N 43°27' W 003°48'0 0.2
2019-Oct-09 20:20N 43°28' W 003°48'0 0.0
2019-Oct-09 20:00N 43°28' W 003°48'0 0.0
2019-Oct-09 19:19N 43°28' W 003°48'0 0.0
2019-Oct-09 18:59N 43°28' W 003°48'0 0.0
2019-Oct-09 18:30N 43°28' W 003°48'0 0.0
2019-Oct-09 18:01N 43°28' W 003°48'4 4.6
2019-Oct-09 17:04N 43°31' W 003°45'120.6
2019-Oct-09 17:00N 43°32' W 003°45'1020.6
2019-Oct-09 16:30N 43°42' W 003°49'1120.3
2019-Oct-09 15:57N 43°53' W 003°52'23620.4
2019-Oct-09 04:21N 47°44' W 005°04'721.0
2019-Oct-09 04:00N 47°51' W 005°06'1121.2
2019-Oct-09 03:30N 48°01' W 005°10'1020.4
2019-Oct-09 03:01N 48°11' W 005°08'1020.2
2019-Oct-09 02:31N 48°21' W 005°07'816.0
2019-Oct-09 02:01N 48°28' W 004°60'1019.2
2019-Oct-09 01:30N 48°37' W 004°54'919.0
2019-Oct-09 01:01N 48°46' W 004°50'1019.0
2019-Oct-09 00:31N 48°55' W 004°46'7920.1
2019-Oct-08 20:34N 50°11' W 004°14'620.5
2019-Oct-08 20:18N 50°16' W 004°11'515.6
2019-Oct-08 20:00N 50°21' W 004°09'1 2.3
2019-Oct-08 19:30N 50°22' W 004°09'0 0.0
2019-Oct-08 19:00N 50°22' W 004°09'0 0.0
2019-Oct-08 18:30N 50°22' W 004°09'0 0.0
2019-Oct-08 18:00N 50°22' W 004°09'0 0.0
2019-Oct-08 17:30N 50°22' W 004°09'0 0.0
2019-Oct-08 17:00N 50°22' W 004°09'0 0.9
2019-Oct-08 16:30N 50°21' W 004°09'713.6
2019-Oct-08 16:00N 50°15' W 004°11'1121.0
2019-Oct-08 15:30N 50°04' W 004°15'7221.2
2019-Oct-08 12:05N 48°54' W 004°43'221.3
2019-Oct-08 12:00N 48°53' W 004°44'1121.2
2019-Oct-08 11:30N 48°42' W 004°47'1121.5
2019-Oct-08 11:00N 48°32' W 004°51'816.2
2019-Oct-08 10:31N 48°24' W 004°49'713.6
2019-Oct-08 10:00N 48°17' W 004°46'1020.7
2019-Oct-08 09:31N 48°07' W 004°46'815.5
2019-Oct-08 09:01N 47°59' W 004°43'1020.3
2019-Oct-08 08:30N 47°49' W 004°41'1020.4
2019-Oct-08 08:00N 47°39' W 004°40'1020.4
2019-Oct-08 07:30N 47°29' W 004°38'1020.2
2019-Oct-08 07:00N 47°19' W 004°36'  

Dump ship's entire track history